sensor_id;sensor_type;location;lat;lon;timestamp;P1;durP1;ratioP1;P2;durP2;ratioP2
14799;SDS011;7491;57.750;11.970;2022-09-13T00:02:04;9.07;;;5.15;;
14799;SDS011;7491;57.750;11.970;2022-09-13T00:04:31;8.32;;;4.93;;
14799;SDS011;7491;57.750;11.970;2022-09-13T00:06:58;9.35;;;5.30;;
14799;SDS011;7491;57.750;11.970;2022-09-13T00:09:26;10.80;;;5.32;;
14799;SDS011;7491;57.750;11.970;2022-09-13T00:11:54;11.45;;;5.65;;
14799;SDS011;7491;57.750;11.970;2022-09-13T00:14:21;9.88;;;6.07;;
14799;SDS011;7491;57.750;11.970;2022-09-13T00:16:50;10.02;;;5.38;;
14799;SDS011;7491;57.750;11.970;2022-09-13T00:19:17;15.60;;;5.55;;
14799;SDS011;7491;57.750;11.970;2022-09-13T00:21:43;11.35;;;5.40;;
14799;SDS011;7491;57.750;11.970;2022-09-13T00:24:10;9.80;;;5.65;;
14799;SDS011;7491;57.750;11.970;2022-09-13T00:26:38;12.57;;;6.55;;
14799;SDS011;7491;57.750;11.970;2022-09-13T00:29:05;11.98;;;6.30;;
14799;SDS011;7491;57.750;11.970;2022-09-13T00:31:31;7.88;;;5.85;;
14799;SDS011;7491;57.750;11.970;2022-09-13T00:33:58;9.82;;;5.97;;
14799;SDS011;7491;57.750;11.970;2022-09-13T00:36:25;10.18;;;5.05;;
14799;SDS011;7491;57.750;11.970;2022-09-13T00:38:52;10.77;;;5.32;;
14799;SDS011;7491;57.750;11.970;2022-09-13T00:41:19;8.35;;;4.97;;
14799;SDS011;7491;57.750;11.970;2022-09-13T00:43:49;7.63;;;4.65;;
14799;SDS011;7491;57.750;11.970;2022-09-13T00:46:19;6.25;;;4.85;;
14799;SDS011;7491;57.750;11.970;2022-09-13T00:48:54;8.80;;;4.72;;
14799;SDS011;7491;57.750;11.970;2022-09-13T00:51:26;11.55;;;4.88;;
14799;SDS011;7491;57.750;11.970;2022-09-13T00:53:54;8.32;;;4.35;;
14799;SDS011;7491;57.750;11.970;2022-09-13T00:56:24;5.68;;;4.13;;
14799;SDS011;7491;57.750;11.970;2022-09-13T00:58:58;6.45;;;4.80;;
14799;SDS011;7491;57.750;11.970;2022-09-13T01:01:28;7.05;;;4.35;;
14799;SDS011;7491;57.750;11.970;2022-09-13T01:04:00;7.30;;;4.20;;
14799;SDS011;7491;57.750;11.970;2022-09-13T01:06:28;9.35;;;4.47;;
14799;SDS011;7491;57.750;11.970;2022-09-13T01:08:58;8.30;;;4.53;;
14799;SDS011;7491;57.750;11.970;2022-09-13T01:11:31;7.82;;;4.38;;
14799;SDS011;7491;57.750;11.970;2022-09-13T01:14:05;8.65;;;4.55;;
14799;SDS011;7491;57.750;11.970;2022-09-13T01:16:32;10.85;;;4.70;;
14799;SDS011;7491;57.750;11.970;2022-09-13T01:18:59;10.23;;;5.60;;
14799;SDS011;7491;57.750;11.970;2022-09-13T01:21:39;7.07;;;4.88;;
14799;SDS011;7491;57.750;11.970;2022-09-13T01:24:31;9.93;;;4.63;;
14799;SDS011;7491;57.750;11.970;2022-09-13T01:27:22;9.52;;;4.60;;
14799;SDS011;7491;57.750;11.970;2022-09-13T01:30:12;10.55;;;4.43;;
14799;SDS011;7491;57.750;11.970;2022-09-13T01:35:52;7.20;;;4.03;;
14799;SDS011;7491;57.750;11.970;2022-09-13T01:38:44;5.15;;;3.38;;
14799;SDS011;7491;57.750;11.970;2022-09-13T01:44:18;10.02;;;3.63;;
14799;SDS011;7491;57.750;11.970;2022-09-13T01:46:59;6.43;;;2.58;;
14799;SDS011;7491;57.750;11.970;2022-09-13T01:49:35;6.47;;;1.58;;
14799;SDS011;7491;57.750;11.970;2022-09-13T01:52:13;3.53;;;1.15;;
14799;SDS011;7491;57.750;11.970;2022-09-13T01:54:47;9.70;;;0.95;;
14799;SDS011;7491;57.750;11.970;2022-09-13T01:57:24;5.53;;;1.23;;
14799;SDS011;7491;57.750;11.970;2022-09-13T01:59:58;3.75;;;1.20;;
14799;SDS011;7491;57.750;11.970;2022-09-13T02:02:31;2.97;;;1.20;;
14799;SDS011;7491;57.750;11.970;2022-09-13T02:05:03;3.38;;;1.20;;
14799;SDS011;7491;57.750;11.970;2022-09-13T02:07:37;3.83;;;1.35;;
14799;SDS011;7491;57.750;11.970;2022-09-13T02:10:08;5.25;;;1.20;;
14799;SDS011;7491;57.750;11.970;2022-09-13T02:12:39;5.65;;;1.30;;
14799;SDS011;7491;57.750;11.970;2022-09-13T02:15:08;6.53;;;1.20;;
14799;SDS011;7491;57.750;11.970;2022-09-13T02:17:44;5.03;;;1.58;;
14799;SDS011;7491;57.750;11.970;2022-09-13T02:20:16;7.80;;;1.60;;
14799;SDS011;7491;57.750;11.970;2022-09-13T02:22:49;6.28;;;1.83;;
14799;SDS011;7491;57.750;11.970;2022-09-13T02:25:20;5.82;;;2.05;;
14799;SDS011;7491;57.750;11.970;2022-09-13T02:27:51;6.97;;;1.35;;
14799;SDS011;7491;57.750;11.970;2022-09-13T02:30:23;8.32;;;2.60;;
14799;SDS011;7491;57.750;11.970;2022-09-13T02:32:53;14.15;;;3.38;;
14799;SDS011;7491;57.750;11.970;2022-09-13T02:35:23;9.00;;;2.50;;
14799;SDS011;7491;57.750;11.970;2022-09-13T02:37:55;8.40;;;2.70;;
14799;SDS011;7491;57.750;11.970;2022-09-13T02:40:31;17.20;;;3.40;;
14799;SDS011;7491;57.750;11.970;2022-09-13T02:43:04;14.65;;;2.92;;
14799;SDS011;7491;57.750;11.970;2022-09-13T02:45:41;12.90;;;2.85;;
14799;SDS011;7491;57.750;11.970;2022-09-13T02:48:16;12.55;;;3.30;;
14799;SDS011;7491;57.750;11.970;2022-09-13T02:50:53;20.48;;;4.45;;
14799;SDS011;7491;57.750;11.970;2022-09-13T02:53:28;17.45;;;4.50;;
14799;SDS011;7491;57.750;11.970;2022-09-13T02:56:04;14.27;;;3.40;;
14799;SDS011;7491;57.750;11.970;2022-09-13T02:58:41;15.43;;;3.05;;
14799;SDS011;7491;57.750;11.970;2022-09-13T03:01:12;14.02;;;2.97;;
14799;SDS011;7491;57.750;11.970;2022-09-13T03:03:40;12.88;;;2.78;;
14799;SDS011;7491;57.750;11.970;2022-09-13T03:06:07;10.23;;;2.80;;
14799;SDS011;7491;57.750;11.970;2022-09-13T03:08:34;14.73;;;3.10;;
14799;SDS011;7491;57.750;11.970;2022-09-13T03:11:05;14.10;;;2.53;;
14799;SDS011;7491;57.750;11.970;2022-09-13T03:13:44;12.27;;;2.75;;
14799;SDS011;7491;57.750;11.970;2022-09-13T03:16:35;12.82;;;2.95;;
14799;SDS011;7491;57.750;11.970;2022-09-13T03:19:17;14.18;;;3.35;;
14799;SDS011;7491;57.750;11.970;2022-09-13T03:21:57;17.23;;;3.22;;
14799;SDS011;7491;57.750;11.970;2022-09-13T03:24:43;13.50;;;3.30;;
14799;SDS011;7491;57.750;11.970;2022-09-13T03:27:17;15.98;;;3.78;;
14799;SDS011;7491;57.750;11.970;2022-09-13T03:29:55;17.27;;;3.92;;
14799;SDS011;7491;57.750;11.970;2022-09-13T03:32:29;18.73;;;3.50;;
14799;SDS011;7491;57.750;11.970;2022-09-13T03:35:05;17.15;;;3.00;;
14799;SDS011;7491;57.750;11.970;2022-09-13T03:37:42;14.43;;;2.80;;
14799;SDS011;7491;57.750;11.970;2022-09-13T03:40:13;17.17;;;3.42;;
14799;SDS011;7491;57.750;11.970;2022-09-13T03:42:45;17.70;;;2.58;;
14799;SDS011;7491;57.750;11.970;2022-09-13T03:45:18;9.07;;;2.17;;
14799;SDS011;7491;57.750;11.970;2022-09-13T03:47:49;6.05;;;2.00;;
14799;SDS011;7491;57.750;11.970;2022-09-13T03:50:19;8.70;;;2.17;;
14799;SDS011;7491;57.750;11.970;2022-09-13T03:52:49;8.82;;;1.70;;
14799;SDS011;7491;57.750;11.970;2022-09-13T03:55:21;6.90;;;1.77;;
14799;SDS011;7491;57.750;11.970;2022-09-13T03:57:49;4.78;;;1.60;;
14799;SDS011;7491;57.750;11.970;2022-09-13T04:00:16;3.40;;;1.20;;
14799;SDS011;7491;57.750;11.970;2022-09-13T04:02:43;10.10;;;2.05;;
14799;SDS011;7491;57.750;11.970;2022-09-13T04:05:10;10.95;;;1.70;;
14799;SDS011;7491;57.750;11.970;2022-09-13T04:07:38;10.25;;;2.03;;
14799;SDS011;7491;57.750;11.970;2022-09-13T04:10:05;3.08;;;1.30;;
14799;SDS011;7491;57.750;11.970;2022-09-13T04:12:33;2.78;;;1.48;;
14799;SDS011;7491;57.750;11.970;2022-09-13T04:15:00;3.85;;;1.17;;
14799;SDS011;7491;57.750;11.970;2022-09-13T04:17:26;5.93;;;1.38;;
14799;SDS011;7491;57.750;11.970;2022-09-13T04:19:53;6.35;;;1.50;;
14799;SDS011;7491;57.750;11.970;2022-09-13T04:22:20;3.38;;;1.10;;
14799;SDS011;7491;57.750;11.970;2022-09-13T04:24:48;7.82;;;1.42;;
14799;SDS011;7491;57.750;11.970;2022-09-13T04:27:16;5.22;;;1.50;;
14799;SDS011;7491;57.750;11.970;2022-09-13T04:29:43;4.40;;;1.08;;
14799;SDS011;7491;57.750;11.970;2022-09-13T04:32:10;3.90;;;1.63;;
14799;SDS011;7491;57.750;11.970;2022-09-13T04:34:37;4.68;;;1.58;;
14799;SDS011;7491;57.750;11.970;2022-09-13T04:37:04;4.13;;;1.27;;
14799;SDS011;7491;57.750;11.970;2022-09-13T04:39:31;5.47;;;1.55;;
14799;SDS011;7491;57.750;11.970;2022-09-13T04:41:59;3.83;;;1.38;;
14799;SDS011;7491;57.750;11.970;2022-09-13T04:44:26;4.97;;;1.33;;
14799;SDS011;7491;57.750;11.970;2022-09-13T04:46:53;4.65;;;1.30;;
14799;SDS011;7491;57.750;11.970;2022-09-13T04:49:20;2.90;;;1.55;;
14799;SDS011;7491;57.750;11.970;2022-09-13T04:51:47;5.68;;;1.40;;
14799;SDS011;7491;57.750;11.970;2022-09-13T04:54:14;6.13;;;1.58;;
14799;SDS011;7491;57.750;11.970;2022-09-13T04:56:41;4.82;;;1.60;;
14799;SDS011;7491;57.750;11.970;2022-09-13T04:59:10;5.68;;;1.67;;
14799;SDS011;7491;57.750;11.970;2022-09-13T05:01:37;5.32;;;2.00;;
14799;SDS011;7491;57.750;11.970;2022-09-13T05:04:05;8.43;;;2.35;;
14799;SDS011;7491;57.750;11.970;2022-09-13T05:06:36;8.13;;;2.30;;
14799;SDS011;7491;57.750;11.970;2022-09-13T05:09:03;5.78;;;1.90;;
14799;SDS011;7491;57.750;11.970;2022-09-13T05:11:30;12.65;;;2.90;;
14799;SDS011;7491;57.750;11.970;2022-09-13T05:13:57;6.55;;;2.70;;
14799;SDS011;7491;57.750;11.970;2022-09-13T05:16:27;12.80;;;3.15;;
14799;SDS011;7491;57.750;11.970;2022-09-13T05:18:56;8.00;;;2.70;;
14799;SDS011;7491;57.750;11.970;2022-09-13T05:21:23;9.98;;;2.13;;
14799;SDS011;7491;57.750;11.970;2022-09-13T05:23:52;5.35;;;2.03;;
14799;SDS011;7491;57.750;11.970;2022-09-13T05:26:20;10.77;;;2.28;;
14799;SDS011;7491;57.750;11.970;2022-09-13T05:28:48;9.13;;;2.33;;
14799;SDS011;7491;57.750;11.970;2022-09-13T05:31:16;4.97;;;2.03;;
14799;SDS011;7491;57.750;11.970;2022-09-13T05:33:51;8.25;;;2.30;;
14799;SDS011;7491;57.750;11.970;2022-09-13T05:36:19;8.38;;;2.47;;
14799;SDS011;7491;57.750;11.970;2022-09-13T05:38:46;6.53;;;2.05;;
14799;SDS011;7491;57.750;11.970;2022-09-13T05:41:13;8.98;;;2.25;;
14799;SDS011;7491;57.750;11.970;2022-09-13T05:43:39;9.55;;;2.33;;
14799;SDS011;7491;57.750;11.970;2022-09-13T05:46:06;6.35;;;2.10;;
14799;SDS011;7491;57.750;11.970;2022-09-13T05:48:36;8.73;;;2.05;;
14799;SDS011;7491;57.750;11.970;2022-09-13T05:51:06;8.85;;;1.90;;
14799;SDS011;7491;57.750;11.970;2022-09-13T05:53:34;13.35;;;1.98;;
14799;SDS011;7491;57.750;11.970;2022-09-13T05:56:02;8.80;;;1.75;;
14799;SDS011;7491;57.750;11.970;2022-09-13T05:58:28;9.63;;;1.90;;
14799;SDS011;7491;57.750;11.970;2022-09-13T06:00:55;7.75;;;1.80;;
14799;SDS011;7491;57.750;11.970;2022-09-13T06:03:23;7.97;;;1.73;;
14799;SDS011;7491;57.750;11.970;2022-09-13T06:05:53;6.65;;;1.85;;
14799;SDS011;7491;57.750;11.970;2022-09-13T06:08:23;7.88;;;1.63;;
14799;SDS011;7491;57.750;11.970;2022-09-13T06:10:53;7.03;;;1.50;;
14799;SDS011;7491;57.750;11.970;2022-09-13T06:13:21;9.52;;;2.03;;
14799;SDS011;7491;57.750;11.970;2022-09-13T06:15:48;4.30;;;1.60;;
14799;SDS011;7491;57.750;11.970;2022-09-13T06:18:14;7.15;;;1.77;;
14799;SDS011;7491;57.750;11.970;2022-09-13T06:20:41;7.10;;;1.70;;
14799;SDS011;7491;57.750;11.970;2022-09-13T06:23:08;8.75;;;1.58;;
14799;SDS011;7491;57.750;11.970;2022-09-13T06:25:36;8.57;;;1.88;;
14799;SDS011;7491;57.750;11.970;2022-09-13T06:28:03;7.15;;;1.88;;
14799;SDS011;7491;57.750;11.970;2022-09-13T06:30:30;8.75;;;1.52;;
14799;SDS011;7491;57.750;11.970;2022-09-13T06:32:57;12.00;;;1.88;;
14799;SDS011;7491;57.750;11.970;2022-09-13T06:35:24;10.70;;;1.73;;
14799;SDS011;7491;57.750;11.970;2022-09-13T06:37:50;7.43;;;1.73;;
14799;SDS011;7491;57.750;11.970;2022-09-13T06:40:20;8.38;;;2.33;;
14799;SDS011;7491;57.750;11.970;2022-09-13T06:42:48;7.55;;;1.42;;
14799;SDS011;7491;57.750;11.970;2022-09-13T06:45:15;6.70;;;1.40;;
14799;SDS011;7491;57.750;11.970;2022-09-13T06:47:42;8.43;;;1.60;;
14799;SDS011;7491;57.750;11.970;2022-09-13T06:50:09;11.50;;;1.90;;
14799;SDS011;7491;57.750;11.970;2022-09-13T06:52:35;6.50;;;1.48;;
14799;SDS011;7491;57.750;11.970;2022-09-13T06:55:02;11.07;;;1.88;;
14799;SDS011;7491;57.750;11.970;2022-09-13T06:57:29;10.02;;;1.60;;
14799;SDS011;7491;57.750;11.970;2022-09-13T06:59:58;6.18;;;1.50;;
14799;SDS011;7491;57.750;11.970;2022-09-13T07:02:24;9.38;;;2.05;;
14799;SDS011;7491;57.750;11.970;2022-09-13T07:04:51;6.32;;;1.67;;
14799;SDS011;7491;57.750;11.970;2022-09-13T07:07:18;12.00;;;1.50;;
14799;SDS011;7491;57.750;11.970;2022-09-13T07:09:45;9.32;;;1.55;;
14799;SDS011;7491;57.750;11.970;2022-09-13T07:12:11;7.93;;;1.52;;
14799;SDS011;7491;57.750;11.970;2022-09-13T07:14:38;12.40;;;1.77;;
14799;SDS011;7491;57.750;11.970;2022-09-13T07:17:06;7.80;;;1.60;;
14799;SDS011;7491;57.750;11.970;2022-09-13T07:19:33;7.25;;;1.38;;
14799;SDS011;7491;57.750;11.970;2022-09-13T07:21:59;3.83;;;1.15;;
14799;SDS011;7491;57.750;11.970;2022-09-13T07:24:26;10.50;;;1.80;;
14799;SDS011;7491;57.750;11.970;2022-09-13T07:26:53;5.25;;;1.40;;
14799;SDS011;7491;57.750;11.970;2022-09-13T07:29:20;7.18;;;1.85;;
14799;SDS011;7491;57.750;11.970;2022-09-13T07:31:49;6.53;;;1.63;;
14799;SDS011;7491;57.750;11.970;2022-09-13T07:34:18;7.88;;;1.52;;
14799;SDS011;7491;57.750;11.970;2022-09-13T07:36:46;5.40;;;1.40;;
14799;SDS011;7491;57.750;11.970;2022-09-13T07:39:14;11.98;;;1.63;;
14799;SDS011;7491;57.750;11.970;2022-09-13T07:41:41;12.27;;;1.95;;
14799;SDS011;7491;57.750;11.970;2022-09-13T07:44:08;7.90;;;1.50;;
14799;SDS011;7491;57.750;11.970;2022-09-13T07:46:36;9.25;;;1.70;;
14799;SDS011;7491;57.750;11.970;2022-09-13T07:49:07;11.68;;;1.83;;
14799;SDS011;7491;57.750;11.970;2022-09-13T07:51:37;9.93;;;1.58;;
14799;SDS011;7491;57.750;11.970;2022-09-13T07:54:06;10.95;;;1.80;;
14799;SDS011;7491;57.750;11.970;2022-09-13T07:56:36;10.80;;;2.10;;
14799;SDS011;7491;57.750;11.970;2022-09-13T07:59:04;31.90;;;2.47;;
14799;SDS011;7491;57.750;11.970;2022-09-13T08:01:33;15.02;;;1.75;;
14799;SDS011;7491;57.750;11.970;2022-09-13T08:04:03;15.88;;;1.98;;
14799;SDS011;7491;57.750;11.970;2022-09-13T08:06:31;6.70;;;1.70;;
14799;SDS011;7491;57.750;11.970;2022-09-13T08:09:00;11.38;;;2.70;;
14799;SDS011;7491;57.750;11.970;2022-09-13T08:11:28;6.63;;;2.10;;
14799;SDS011;7491;57.750;11.970;2022-09-13T08:13:57;10.02;;;1.70;;
14799;SDS011;7491;57.750;11.970;2022-09-13T08:16:24;9.43;;;1.90;;
14799;SDS011;7491;57.750;11.970;2022-09-13T08:18:52;5.50;;;1.45;;
14799;SDS011;7491;57.750;11.970;2022-09-13T08:21:20;8.43;;;1.50;;
14799;SDS011;7491;57.750;11.970;2022-09-13T08:23:48;8.73;;;1.50;;
14799;SDS011;7491;57.750;11.970;2022-09-13T08:26:16;6.88;;;1.52;;
14799;SDS011;7491;57.750;11.970;2022-09-13T08:28:43;7.95;;;1.58;;
14799;SDS011;7491;57.750;11.970;2022-09-13T08:31:11;9.38;;;1.98;;
14799;SDS011;7491;57.750;11.970;2022-09-13T08:33:41;7.28;;;2.20;;
14799;SDS011;7491;57.750;11.970;2022-09-13T08:36:09;9.95;;;2.22;;
14799;SDS011;7491;57.750;11.970;2022-09-13T08:38:36;8.38;;;1.73;;
14799;SDS011;7491;57.750;11.970;2022-09-13T08:41:04;8.00;;;2.45;;
14799;SDS011;7491;57.750;11.970;2022-09-13T08:43:59;9.48;;;1.95;;
14799;SDS011;7491;57.750;11.970;2022-09-13T08:46:31;7.78;;;1.75;;
14799;SDS011;7491;57.750;11.970;2022-09-13T08:49:00;5.53;;;1.60;;
14799;SDS011;7491;57.750;11.970;2022-09-13T08:51:31;10.20;;;1.95;;
14799;SDS011;7491;57.750;11.970;2022-09-13T08:54:02;6.18;;;1.17;;
14799;SDS011;7491;57.750;11.970;2022-09-13T08:56:34;7.25;;;1.80;;
14799;SDS011;7491;57.750;11.970;2022-09-13T08:59:21;7.90;;;2.05;;
14799;SDS011;7491;57.750;11.970;2022-09-13T09:01:59;7.28;;;1.30;;
14799;SDS011;7491;57.750;11.970;2022-09-13T09:04:38;8.50;;;1.88;;
14799;SDS011;7491;57.750;11.970;2022-09-13T09:07:11;5.75;;;1.60;;
14799;SDS011;7491;57.750;11.970;2022-09-13T09:09:43;9.00;;;1.88;;
14799;SDS011;7491;57.750;11.970;2022-09-13T09:12:17;8.50;;;2.03;;
14799;SDS011;7491;57.750;11.970;2022-09-13T09:14:53;8.55;;;1.58;;
14799;SDS011;7491;57.750;11.970;2022-09-13T09:17:28;9.48;;;2.17;;
14799;SDS011;7491;57.750;11.970;2022-09-13T09:20:00;10.60;;;1.73;;
14799;SDS011;7491;57.750;11.970;2022-09-13T09:22:33;9.55;;;1.30;;
14799;SDS011;7491;57.750;11.970;2022-09-13T09:25:01;8.50;;;1.63;;
14799;SDS011;7491;57.750;11.970;2022-09-13T09:27:30;11.73;;;1.95;;
14799;SDS011;7491;57.750;11.970;2022-09-13T09:29:58;11.30;;;2.15;;
14799;SDS011;7491;57.750;11.970;2022-09-13T09:32:35;12.30;;;2.10;;
14799;SDS011;7491;57.750;11.970;2022-09-13T09:35:15;5.40;;;1.35;;
14799;SDS011;7491;57.750;11.970;2022-09-13T09:37:58;8.63;;;1.83;;
14799;SDS011;7491;57.750;11.970;2022-09-13T09:40:38;11.85;;;1.77;;
14799;SDS011;7491;57.750;11.970;2022-09-13T09:43:12;11.38;;;1.90;;
14799;SDS011;7491;57.750;11.970;2022-09-13T09:45:43;5.78;;;1.83;;
14799;SDS011;7491;57.750;11.970;2022-09-13T09:48:11;10.57;;;2.28;;
14799;SDS011;7491;57.750;11.970;2022-09-13T09:50:44;10.30;;;2.00;;
14799;SDS011;7491;57.750;11.970;2022-09-13T09:53:15;9.27;;;1.95;;
14799;SDS011;7491;57.750;11.970;2022-09-13T09:55:53;7.68;;;1.42;;
14799;SDS011;7491;57.750;11.970;2022-09-13T09:58:39;7.10;;;1.58;;
14799;SDS011;7491;57.750;11.970;2022-09-13T10:01:13;13.00;;;2.35;;
14799;SDS011;7491;57.750;11.970;2022-09-13T10:03:48;7.43;;;1.73;;
14799;SDS011;7491;57.750;11.970;2022-09-13T10:06:20;5.68;;;1.27;;
14799;SDS011;7491;57.750;11.970;2022-09-13T10:08:53;5.65;;;1.10;;
14799;SDS011;7491;57.750;11.970;2022-09-13T10:11:24;10.48;;;1.90;;
14799;SDS011;7491;57.750;11.970;2022-09-13T10:14:05;11.60;;;1.90;;
14799;SDS011;7491;57.750;11.970;2022-09-13T10:16:54;11.25;;;1.83;;
14799;SDS011;7491;57.750;11.970;2022-09-13T10:19:28;14.30;;;1.85;;
14799;SDS011;7491;57.750;11.970;2022-09-13T10:22:00;12.00;;;1.95;;
14799;SDS011;7491;57.750;11.970;2022-09-13T10:24:27;12.57;;;2.13;;
14799;SDS011;7491;57.750;11.970;2022-09-13T10:26:55;14.63;;;2.50;;
14799;SDS011;7491;57.750;11.970;2022-09-13T10:29:24;15.50;;;2.33;;
14799;SDS011;7491;57.750;11.970;2022-09-13T10:31:52;12.52;;;1.90;;
14799;SDS011;7491;57.750;11.970;2022-09-13T10:34:22;8.45;;;1.73;;
14799;SDS011;7491;57.750;11.970;2022-09-13T10:36:52;10.32;;;1.70;;
14799;SDS011;7491;57.750;11.970;2022-09-13T10:39:23;8.38;;;1.65;;
14799;SDS011;7491;57.750;11.970;2022-09-13T10:41:53;13.27;;;1.95;;
14799;SDS011;7491;57.750;11.970;2022-09-13T10:44:26;11.13;;;1.90;;
14799;SDS011;7491;57.750;11.970;2022-09-13T10:46:58;9.05;;;1.77;;
14799;SDS011;7491;57.750;11.970;2022-09-13T10:49:35;7.72;;;1.88;;
14799;SDS011;7491;57.750;11.970;2022-09-13T10:52:26;6.20;;;1.92;;
14799;SDS011;7491;57.750;11.970;2022-09-13T10:55:14;10.23;;;2.00;;
14799;SDS011;7491;57.750;11.970;2022-09-13T10:57:54;7.80;;;1.75;;
14799;SDS011;7491;57.750;11.970;2022-09-13T11:00:41;7.15;;;2.00;;
14799;SDS011;7491;57.750;11.970;2022-09-13T11:03:20;7.97;;;1.48;;
14799;SDS011;7491;57.750;11.970;2022-09-13T11:05:56;6.65;;;1.88;;
14799;SDS011;7491;57.750;11.970;2022-09-13T11:08:34;6.50;;;1.48;;
14799;SDS011;7491;57.750;11.970;2022-09-13T11:11:09;9.73;;;1.98;;
14799;SDS011;7491;57.750;11.970;2022-09-13T11:13:43;11.50;;;1.85;;
14799;SDS011;7491;57.750;11.970;2022-09-13T11:16:26;10.10;;;1.73;;
14799;SDS011;7491;57.750;11.970;2022-09-13T11:22:15;17.92;;;2.35;;
14799;SDS011;7491;57.750;11.970;2022-09-13T11:24:55;6.50;;;1.67;;
14799;SDS011;7491;57.750;11.970;2022-09-13T11:27:43;14.98;;;2.10;;
14799;SDS011;7491;57.750;11.970;2022-09-13T11:30:18;10.63;;;2.00;;
14799;SDS011;7491;57.750;11.970;2022-09-13T11:35:42;10.75;;;1.75;;
14799;SDS011;7491;57.750;11.970;2022-09-13T11:38:18;7.57;;;1.92;;
14799;SDS011;7491;57.750;11.970;2022-09-13T11:40:59;8.70;;;1.58;;
14799;SDS011;7491;57.750;11.970;2022-09-13T11:43:40;6.00;;;1.05;;
14799;SDS011;7491;57.750;11.970;2022-09-13T11:46:20;5.68;;;1.23;;
14799;SDS011;7491;57.750;11.970;2022-09-13T11:52:02;2.75;;;0.73;;
14799;SDS011;7491;57.750;11.970;2022-09-13T11:54:43;3.45;;;0.70;;
14799;SDS011;7491;57.750;11.970;2022-09-13T11:57:20;2.55;;;0.82;;
14799;SDS011;7491;57.750;11.970;2022-09-13T11:59:52;2.58;;;0.77;;
14799;SDS011;7491;57.750;11.970;2022-09-13T12:02:23;2.70;;;0.93;;
14799;SDS011;7491;57.750;11.970;2022-09-13T12:04:55;3.17;;;0.80;;
14799;SDS011;7491;57.750;11.970;2022-09-13T12:07:30;2.63;;;0.88;;
14799;SDS011;7491;57.750;11.970;2022-09-13T12:10:03;3.17;;;1.05;;
14799;SDS011;7491;57.750;11.970;2022-09-13T12:12:33;1.48;;;0.95;;
14799;SDS011;7491;57.750;11.970;2022-09-13T12:15:03;1.27;;;0.70;;
14799;SDS011;7491;57.750;11.970;2022-09-13T12:17:35;1.77;;;0.70;;
14799;SDS011;7491;57.750;11.970;2022-09-13T12:20:10;2.30;;;0.63;;
14799;SDS011;7491;57.750;11.970;2022-09-13T12:22:44;2.53;;;0.57;;
14799;SDS011;7491;57.750;11.970;2022-09-13T12:25:17;3.03;;;0.70;;
14799;SDS011;7491;57.750;11.970;2022-09-13T12:27:48;3.13;;;0.80;;
14799;SDS011;7491;57.750;11.970;2022-09-13T12:30:22;5.55;;;1.23;;
14799;SDS011;7491;57.750;11.970;2022-09-13T12:32:50;2.72;;;0.90;;
14799;SDS011;7491;57.750;11.970;2022-09-13T12:35:20;2.53;;;1.00;;
14799;SDS011;7491;57.750;11.970;2022-09-13T12:38:06;4.10;;;1.25;;
14799;SDS011;7491;57.750;11.970;2022-09-13T12:41:12;4.13;;;1.25;;
14799;SDS011;7491;57.750;11.970;2022-09-13T12:44:00;3.90;;;1.10;;
14799;SDS011;7491;57.750;11.970;2022-09-13T12:49:53;1.92;;;0.63;;
14799;SDS011;7491;57.750;11.970;2022-09-13T12:52:37;1.42;;;0.70;;
14799;SDS011;7491;57.750;11.970;2022-09-13T12:58:19;2.88;;;1.25;;
14799;SDS011;7491;57.750;11.970;2022-09-13T13:01:02;2.92;;;0.93;;
14799;SDS011;7491;57.750;11.970;2022-09-13T13:03:34;4.47;;;0.98;;
14799;SDS011;7491;57.750;11.970;2022-09-13T13:06:08;1.55;;;0.70;;
14799;SDS011;7491;57.750;11.970;2022-09-13T13:08:47;6.63;;;1.20;;
14799;SDS011;7491;57.750;11.970;2022-09-13T13:14:26;3.20;;;0.85;;
14799;SDS011;7491;57.750;11.970;2022-09-13T13:26:06;4.00;;;0.85;;
14799;SDS011;7491;57.750;11.970;2022-09-13T13:31:38;4.05;;;0.82;;
14799;SDS011;7491;57.750;11.970;2022-09-13T13:37:00;1.92;;;0.57;;
14799;SDS011;7491;57.750;11.970;2022-09-13T13:42:23;3.45;;;1.13;;
14799;SDS011;7491;57.750;11.970;2022-09-13T13:45:12;2.60;;;0.70;;
14799;SDS011;7491;57.750;11.970;2022-09-13T13:51:19;3.40;;;1.05;;
14799;SDS011;7491;57.750;11.970;2022-09-13T13:54:01;6.20;;;1.13;;
14799;SDS011;7491;57.750;11.970;2022-09-13T13:56:49;4.25;;;1.00;;
14799;SDS011;7491;57.750;11.970;2022-09-13T13:59:21;3.95;;;0.93;;
14799;SDS011;7491;57.750;11.970;2022-09-13T14:01:53;3.67;;;1.00;;
14799;SDS011;7491;57.750;11.970;2022-09-13T14:07:37;5.88;;;1.20;;
14799;SDS011;7491;57.750;11.970;2022-09-13T14:10:33;3.22;;;1.20;;
14799;SDS011;7491;57.750;11.970;2022-09-13T14:13:19;3.60;;;0.90;;
14799;SDS011;7491;57.750;11.970;2022-09-13T14:16:00;6.75;;;1.67;;
14799;SDS011;7491;57.750;11.970;2022-09-13T14:18:46;10.13;;;1.40;;
14799;SDS011;7491;57.750;11.970;2022-09-13T14:21:20;17.17;;;2.67;;
14799;SDS011;7491;57.750;11.970;2022-09-13T14:23:54;10.13;;;2.65;;
14799;SDS011;7491;57.750;11.970;2022-09-13T14:26:34;10.77;;;2.67;;
14799;SDS011;7491;57.750;11.970;2022-09-13T14:29:04;15.20;;;2.65;;
14799;SDS011;7491;57.750;11.970;2022-09-13T14:31:32;19.10;;;3.85;;
14799;SDS011;7491;57.750;11.970;2022-09-13T14:34:00;15.85;;;3.50;;
14799;SDS011;7491;57.750;11.970;2022-09-13T14:36:27;18.33;;;3.38;;
14799;SDS011;7491;57.750;11.970;2022-09-13T14:38:56;11.85;;;2.17;;
14799;SDS011;7491;57.750;11.970;2022-09-13T14:41:28;10.27;;;2.00;;
14799;SDS011;7491;57.750;11.970;2022-09-13T14:44:07;9.98;;;1.98;;
14799;SDS011;7491;57.750;11.970;2022-09-13T14:46:40;18.60;;;2.72;;
14799;SDS011;7491;57.750;11.970;2022-09-13T14:49:14;8.40;;;1.50;;
14799;SDS011;7491;57.750;11.970;2022-09-13T14:51:48;5.80;;;1.30;;
14799;SDS011;7491;57.750;11.970;2022-09-13T14:54:22;9.32;;;1.73;;
14799;SDS011;7491;57.750;11.970;2022-09-13T14:56:56;14.00;;;2.15;;
14799;SDS011;7491;57.750;11.970;2022-09-13T14:59:28;8.10;;;2.13;;
14799;SDS011;7491;57.750;11.970;2022-09-13T15:01:58;9.00;;;1.70;;
14799;SDS011;7491;57.750;11.970;2022-09-13T15:04:32;7.10;;;1.75;;
14799;SDS011;7491;57.750;11.970;2022-09-13T15:07:05;11.18;;;2.25;;
14799;SDS011;7491;57.750;11.970;2022-09-13T15:09:33;8.20;;;2.30;;
14799;SDS011;7491;57.750;11.970;2022-09-13T15:12:02;12.60;;;2.40;;
14799;SDS011;7491;57.750;11.970;2022-09-13T15:14:29;11.15;;;3.35;;
14799;SDS011;7491;57.750;11.970;2022-09-13T15:16:59;14.95;;;2.72;;
14799;SDS011;7491;57.750;11.970;2022-09-13T15:19:38;18.02;;;3.10;;
14799;SDS011;7491;57.750;11.970;2022-09-13T15:22:13;14.00;;;3.30;;
14799;SDS011;7491;57.750;11.970;2022-09-13T15:24:44;19.92;;;3.45;;
14799;SDS011;7491;57.750;11.970;2022-09-13T15:27:20;22.55;;;4.15;;
14799;SDS011;7491;57.750;11.970;2022-09-13T15:29:51;15.38;;;3.75;;
14799;SDS011;7491;57.750;11.970;2022-09-13T15:32:20;17.55;;;3.35;;
14799;SDS011;7491;57.750;11.970;2022-09-13T15:34:49;13.45;;;3.50;;
14799;SDS011;7491;57.750;11.970;2022-09-13T15:37:16;23.02;;;4.85;;
14799;SDS011;7491;57.750;11.970;2022-09-13T15:39:45;20.13;;;3.47;;
14799;SDS011;7491;57.750;11.970;2022-09-13T15:42:13;20.92;;;5.07;;
14799;SDS011;7491;57.750;11.970;2022-09-13T15:44:41;19.42;;;3.80;;
14799;SDS011;7491;57.750;11.970;2022-09-13T15:47:08;20.52;;;4.40;;
14799;SDS011;7491;57.750;11.970;2022-09-13T15:49:36;18.55;;;3.88;;
14799;SDS011;7491;57.750;11.970;2022-09-13T15:52:06;25.48;;;5.93;;
14799;SDS011;7491;57.750;11.970;2022-09-13T15:54:34;24.95;;;4.53;;
14799;SDS011;7491;57.750;11.970;2022-09-13T15:57:05;19.08;;;4.05;;
14799;SDS011;7491;57.750;11.970;2022-09-13T15:59:33;24.60;;;3.95;;
14799;SDS011;7491;57.750;11.970;2022-09-13T16:02:00;17.10;;;3.97;;